Time;durP1;ratioP1;P1;durP2;ratioP2;P2;SDS_P1;SDS_P2;PMS_P1;PMS_P2;Temp;Humidity;BMP_temperature;BMP_pressure;BME280_temperature;BME280_humidity;BME280_pressure;Samples;Min_cycle;Max_cycle;Signal;HPM_P1;HPM_P2
2021/11/06 00:00:40;;;;;;;10.60;6.07;;;6.40;99.90;;;;;;5059008;28;20500;-87
2021/11/06 00:03:06;;;;;;;9.98;6.35;;;6.60;99.90;;;;;;5057111;28;20016;-87
2021/11/06 00:05:35;;;;;;;11.38;6.43;;;6.30;99.90;;;;;;5069051;28;20507;-87
2021/11/06 00:08:01;;;;;;;16.05;7.47;;;6.50;99.90;;;;;;5063964;28;20028;-87
2021/11/06 00:10:27;;;;;;;13.00;7.57;;;6.30;99.90;;;;;;5054821;28;20156;-87
2021/11/06 00:12:53;;;;;;;14.52;8.25;;;6.30;99.90;;;;;;5062423;28;20469;-89
2021/11/06 00:15:20;;;;;;;14.10;7.18;;;6.20;99.90;;;;;;5051336;28;20028;-86
2021/11/06 00:17:46;;;;;;;13.02;7.32;;;6.50;99.90;;;;;;5050230;28;20024;-87
2021/11/06 00:20:13;;;;;;;14.77;7.55;;;7.00;99.90;;;;;;5059221;28;20103;-87
2021/11/06 00:22:39;;;;;;;12.93;7.68;;;6.20;99.90;;;;;;5040230;28;20489;-88
2021/11/06 00:25:07;;;;;;;15.32;7.43;;;6.30;99.90;;;;;;5043781;28;20020;-89
2021/11/06 00:27:34;;;;;;;14.63;7.63;;;6.20;99.90;;;;;;5038072;28;20032;-86
2021/11/06 00:30:00;;;;;;;14.10;7.18;;;6.20;99.90;;;;;;5045493;28;20468;-89
2021/11/06 00:32:26;;;;;;;12.30;7.45;;;6.20;99.90;;;;;;5053166;28;20050;-89
2021/11/06 00:34:52;;;;;;;15.75;7.90;;;6.20;99.90;;;;;;5043394;28;20423;-88
2021/11/06 00:37:18;;;;;;;16.10;7.85;;;6.20;99.90;;;;;;5049316;28;20032;-89
2021/11/06 00:39:44;;;;;;;13.07;7.63;;;6.80;99.90;;;;;;5054715;28;20119;-90
2021/11/06 00:42:10;;;;;;;15.70;7.60;;;6.20;99.90;;;;;;5056547;28;20082;-88
2021/11/06 00:44:35;;;;;;;12.98;8.02;;;7.10;99.90;;;;;;5051754;28;20072;-88
2021/11/06 00:47:01;;;;;;;13.55;8.10;;;6.20;99.90;;;;;;5070421;28;20132;-86
2021/11/06 00:49:27;;;;;;;12.68;7.65;;;6.20;99.90;;;;;;5044588;28;20037;-85
2021/11/06 00:51:53;;;;;;;17.35;8.27;;;6.20;99.90;;;;;;5051385;28;20020;-85
2021/11/06 00:54:19;;;;;;;14.85;8.48;;;6.20;99.90;;;;;;5046809;28;20082;-87
2021/11/06 00:56:44;;;;;;;14.90;8.52;;;6.20;99.90;;;;;;5047111;28;20025;-87
2021/11/06 00:59:10;;;;;;;14.18;7.80;;;6.20;99.90;;;;;;5073984;28;20031;-86
2021/11/06 01:01:37;;;;;;;15.60;8.30;;;6.20;99.90;;;;;;5054953;28;20029;-86
2021/11/06 01:04:04;;;;;;;16.02;8.70;;;6.20;99.90;;;;;;5055570;28;20032;-86
2021/11/06 01:06:29;;;;;;;13.20;7.47;;;6.20;99.90;;;;;;5058938;28;20024;-84
2021/11/06 01:08:55;;;;;;;12.85;7.00;;;6.20;99.90;;;;;;5068989;28;20039;-88
2021/11/06 01:11:21;;;;;;;12.40;6.90;;;6.20;99.90;;;;;;5047142;28;20373;-88
2021/11/06 01:13:47;;;;;;;11.05;6.55;;;6.30;99.90;;;;;;5044925;28;20083;-89
2021/11/06 01:16:13;;;;;;;12.85;7.05;;;6.20;99.90;;;;;;5045859;28;20108;-86
2021/11/06 01:18:39;;;;;;;10.90;6.90;;;6.10;99.90;;;;;;5058083;28;20071;-87
2021/11/06 01:21:05;;;;;;;14.32;6.80;;;6.00;99.90;;;;;;5045877;28;20021;-86
2021/11/06 01:23:30;;;;;;;13.90;6.95;;;6.20;99.90;;;;;;5054445;28;20058;-85
2021/11/06 01:25:56;;;;;;;15.15;7.82;;;6.10;99.90;;;;;;5060821;28;20385;-85
2021/11/06 01:28:22;;;;;;;17.33;7.82;;;6.10;99.90;;;;;;5045003;28;20029;-88
2021/11/06 01:30:47;;;;;;;13.60;7.25;;;6.00;99.90;;;;;;5042695;28;20029;-88
2021/11/06 01:33:13;;;;;;;16.52;8.13;;;6.10;99.90;;;;;;5053606;28;20044;-87
2021/11/06 01:35:41;;;;;;;15.55;8.60;;;6.00;99.90;;;;;;5041770;28;20156;-88
2021/11/06 01:38:07;;;;;;;15.82;8.00;;;5.90;99.90;;;;;;5044420;28;20033;-86
2021/11/06 01:40:33;;;;;;;16.77;8.38;;;6.20;99.90;;;;;;5052605;28;20405;-87
2021/11/06 01:42:58;;;;;;;15.07;8.57;;;6.60;99.90;;;;;;5050608;28;20029;-85
2021/11/06 01:45:25;;;;;;;14.38;8.40;;;6.00;99.90;;;;;;5057402;28;20090;-86
2021/11/06 01:47:52;;;;;;;17.48;7.97;;;6.00;99.90;;;;;;5046990;28;20028;-87
2021/11/06 01:50:21;;;;;;;15.63;8.52;;;6.00;99.90;;;;;;5044526;28;20029;-87
2021/11/06 01:52:47;;;;;;;15.27;9.30;;;6.00;99.90;;;;;;5037804;28;20067;-86
2021/11/06 01:55:14;;;;;;;17.00;8.95;;;6.00;99.90;;;;;;5050279;28;20035;-87
2021/11/06 01:57:40;;;;;;;16.17;8.43;;;6.30;99.90;;;;;;5038304;28;20028;-82
2021/11/06 02:00:20;;;;;;;15.88;8.23;;;6.10;99.90;;;;;;5037043;28;20029;-89
2021/11/06 02:02:46;;;;;;;14.68;8.55;;;6.20;99.90;;;;;;5050113;28;20085;-87
2021/11/06 02:05:14;;;;;;;14.35;8.30;;;6.20;99.90;;;;;;5053896;28;20092;-88
2021/11/06 02:07:40;;;;;;;16.92;8.50;;;6.50;99.90;;;;;;5056184;28;20048;-90
2021/11/06 02:10:07;;;;;;;14.23;8.43;;;6.90;99.90;;;;;;5051746;28;20029;-89
2021/11/06 02:12:33;;;;;;;17.63;9.00;;;6.20;99.90;;;;;;5056553;28;20036;-88
2021/11/06 02:14:59;;;;;;;13.98;8.27;;;6.20;99.90;;;;;;5044359;28;20025;-85
2021/11/06 02:17:25;;;;;;;14.60;8.57;;;6.20;99.90;;;;;;5045138;28;20025;-87
2021/11/06 02:19:51;;;;;;;17.08;8.25;;;6.20;99.90;;;;;;5049041;28;20025;-87
2021/11/06 02:22:16;;;;;;;14.25;8.60;;;6.20;99.90;;;;;;5057573;28;20017;-83
2021/11/06 02:24:42;;;;;;;13.65;8.38;;;6.10;99.90;;;;;;5073219;28;20024;-85
2021/11/06 02:27:08;;;;;;;13.73;8.00;;;6.50;99.90;;;;;;5052857;28;20476;-87
2021/11/06 02:29:34;;;;;;;16.15;7.70;;;6.20;99.90;;;;;;5047431;28;20027;-88
2021/11/06 02:32:00;;;;;;;15.27;9.35;;;6.20;99.90;;;;;;5048217;28;20542;-88
2021/11/06 02:34:26;;;;;;;15.48;7.97;;;6.50;99.90;;;;;;5038577;28;20033;-88
2021/11/06 02:36:53;;;;;;;15.43;7.70;;;6.20;99.90;;;;;;5047999;28;20388;-86
2021/11/06 02:39:23;;;;;;;11.88;7.40;;;6.20;99.90;;;;;;5055694;28;20299;-86
2021/11/06 02:41:49;;;;;;;12.52;7.70;;;7.30;99.90;;;;;;5039922;28;20024;-88
2021/11/06 02:44:15;;;;;;;13.15;7.25;;;6.20;99.90;;;;;;5048170;28;20028;-85
2021/11/06 02:46:41;;;;;;;12.80;7.53;;;6.20;99.90;;;;;;5045630;28;20052;-87
2021/11/06 02:49:09;;;;;;;11.95;7.38;;;6.20;99.90;;;;;;5049154;28;20162;-87
2021/11/06 02:51:35;;;;;;;13.25;7.72;;;6.10;99.90;;;;;;5047656;28;20050;-85
2021/11/06 02:54:01;;;;;;;11.77;7.30;;;6.10;99.90;;;;;;5042852;28;20037;-87
2021/11/06 02:56:28;;;;;;;13.38;7.28;;;6.10;99.90;;;;;;5042519;28;20028;-88
2021/11/06 02:58:55;;;;;;;12.77;8.00;;;6.00;99.90;;;;;;5038563;28;20388;-88
2021/11/06 03:01:21;;;;;;;12.13;7.90;;;7.70;99.90;;;;;;5050184;28;20036;-88
2021/11/06 03:03:47;;;;;;;13.15;8.82;;;6.10;99.90;;;;;;5039987;28;20112;-89
2021/11/06 03:06:14;;;;;;;15.20;8.30;;;6.00;99.90;;;;;;5047423;28;20511;-87
2021/11/06 03:08:40;;;;;;;15.68;8.82;;;5.90;99.90;;;;;;5051154;28;20029;-86
2021/11/06 03:11:05;;;;;;;15.50;8.77;;;5.80;99.90;;;;;;5036888;28;20025;-86
2021/11/06 03:13:32;;;;;;;14.48;8.70;;;5.70;99.90;;;;;;5049608;28;20595;-85
2021/11/06 03:15:57;;;;;;;19.83;9.93;;;5.70;99.90;;;;;;5042817;28;20099;-86
2021/11/06 03:18:23;;;;;;;18.92;10.00;;;5.70;99.90;;;;;;5046850;28;20496;-85
2021/11/06 03:20:50;;;;;;;16.52;9.50;;;5.60;99.90;;;;;;5047479;28;20020;-87
2021/11/06 03:23:16;;;;;;;18.08;9.88;;;5.60;99.90;;;;;;5052317;28;20115;-85
2021/11/06 03:25:42;;;;;;;17.23;9.52;;;5.60;99.90;;;;;;5050664;28;20064;-83
2021/11/06 03:28:07;;;;;;;15.63;9.25;;;5.60;99.90;;;;;;5050462;28;20458;-83
2021/11/06 03:30:33;;;;;;;18.58;10.35;;;5.60;99.90;;;;;;5054753;28;20024;-86
2021/11/06 03:32:59;;;;;;;16.65;9.20;;;5.80;99.90;;;;;;5043634;28;20033;-87
2021/11/06 03:35:25;;;;;;;18.90;9.55;;;6.30;99.90;;;;;;5060022;28;20075;-85
2021/11/06 03:37:50;;;;;;;19.02;9.55;;;5.50;99.90;;;;;;5051260;28;20063;-87
2021/11/06 03:40:18;;;;;;;16.15;9.73;;;5.80;99.90;;;;;;5048321;28;20417;-85
2021/11/06 03:42:45;;;;;;;17.92;10.63;;;5.50;99.90;;;;;;5052414;28;20029;-85
2021/11/06 03:45:10;;;;;;;21.67;10.40;;;5.50;99.90;;;;;;5052167;28;20512;-84
2021/11/06 03:47:37;;;;;;;23.52;10.32;;;5.50;99.90;;;;;;5045135;28;20025;-86
2021/11/06 03:50:06;;;;;;;20.60;10.00;;;5.50;99.90;;;;;;5048438;28;20071;-86
2021/11/06 03:52:32;;;;;;;22.05;10.32;;;5.50;99.90;;;;;;5055245;28;20031;-85
2021/11/06 03:54:57;;;;;;;24.05;11.55;;;5.50;99.90;;;;;;5052529;28;20111;-88
2021/11/06 03:57:23;;;;;;;20.27;11.23;;;5.50;99.90;;;;;;5052259;28;20071;-86
2021/11/06 03:59:49;;;;;;;25.17;12.50;;;5.50;99.90;;;;;;5055061;28;20090;-86
2021/11/06 04:02:14;;;;;;;23.20;11.52;;;7.20;99.90;;;;;;5054628;28;20041;-85
2021/11/06 04:04:40;;;;;;;119.95;15.25;;;5.30;99.90;;;;;;5063910;28;20017;-86
2021/11/06 04:07:06;;;;;;;36.55;11.98;;;6.00;99.90;;;;;;5048897;28;20036;-87
2021/11/06 04:09:31;;;;;;;30.48;11.63;;;5.20;99.90;;;;;;5055578;28;20040;-87
2021/11/06 04:11:57;;;;;;;28.38;12.20;;;5.40;99.90;;;;;;5053053;28;20040;-87
2021/11/06 04:14:22;;;;;;;32.47;12.70;;;5.70;99.90;;;;;;5055941;28;20131;-87
2021/11/06 04:16:48;;;;;;;55.13;12.63;;;5.20;99.90;;;;;;5056204;28;20021;-85
2021/11/06 04:19:14;;;;;;;40.50;12.85;;;5.20;99.90;;;;;;5055521;28;20503;-84
2021/11/06 04:21:40;;;;;;;46.03;12.40;;;5.10;99.90;;;;;;5057663;28;20043;-86
2021/11/06 04:24:07;;;;;;;29.95;11.88;;;5.10;99.90;;;;;;5047840;28;20029;-87
2021/11/06 04:26:33;;;;;;;44.88;13.10;;;5.50;99.90;;;;;;5054250;28;20020;-88
2021/11/06 04:28:58;;;;;;;141.40;15.82;;;5.10;99.90;;;;;;5051054;28;20178;-83
2021/11/06 04:31:24;;;;;;;41.97;12.38;;;5.10;99.90;;;;;;5044996;28;20028;-88
2021/11/06 04:33:50;;;;;;;70.38;13.20;;;5.30;99.90;;;;;;5059542;28;20404;-87
2021/11/06 04:36:16;;;;;;;51.47;11.57;;;5.10;99.90;;;;;;5059149;28;20024;-86
2021/11/06 04:38:42;;;;;;;29.02;12.60;;;5.10;99.90;;;;;;5047014;28;20033;-88
2021/11/06 04:41:08;;;;;;;43.97;11.65;;;5.10;99.90;;;;;;5052862;28;20028;-85
2021/11/06 04:43:34;;;;;;;57.65;11.85;;;5.10;99.90;;;;;;5061354;28;20037;-88
2021/11/06 04:46:00;;;;;;;54.20;12.30;;;5.10;99.90;;;;;;5058000;28;20377;-88
2021/11/06 04:48:26;;;;;;;57.83;12.60;;;5.20;99.90;;;;;;5041156;28;20039;-87
2021/11/06 04:50:51;;;;;;;51.80;13.07;;;5.20;99.90;;;;;;5058331;28;20469;-85
2021/11/06 04:53:17;;;;;;;37.97;11.93;;;5.20;99.90;;;;;;5038265;28;20474;-87
2021/11/06 04:55:43;;;;;;;60.70;12.95;;;5.20;99.90;;;;;;5053951;28;20039;-87
2021/11/06 04:58:08;;;;;;;56.33;12.50;;;5.20;99.90;;;;;;5050647;28;20037;-86
2021/11/06 05:00:34;;;;;;;66.63;12.95;;;5.10;99.90;;;;;;5050280;28;20037;-87
2021/11/06 05:03:00;;;;;;;54.50;13.07;;;5.20;99.90;;;;;;5062568;28;20458;-85
2021/11/06 05:05:26;;;;;;;38.67;13.57;;;5.10;99.90;;;;;;5058056;28;20465;-86
2021/11/06 05:07:51;;;;;;;43.05;11.80;;;5.00;99.90;;;;;;5039059;28;20033;-86
2021/11/06 05:10:17;;;;;;;97.53;13.85;;;5.10;99.90;;;;;;5038759;28;20029;-87
2021/11/06 05:12:43;;;;;;;71.15;12.88;;;5.10;99.90;;;;;;5052594;28;20120;-85
2021/11/06 05:15:09;;;;;;;115.45;17.50;;;5.00;99.90;;;;;;5038327;28;20061;-87
2021/11/06 05:17:35;;;;;;;76.90;14.57;;;5.40;99.90;;;;;;5048644;28;20497;-86
2021/11/06 05:20:02;;;;;;;128.90;16.60;;;5.10;99.90;;;;;;5052421;28;20031;-86
2021/11/06 05:22:28;;;;;;;45.05;13.95;;;4.80;99.90;;;;;;5057936;28;20031;-87
2021/11/06 05:24:54;;;;;;;64.75;14.43;;;4.80;99.90;;;;;;5053058;28;20021;-85
2021/11/06 05:27:20;;;;;;;33.13;12.43;;;4.80;99.90;;;;;;5058346;28;20021;-89
2021/11/06 05:29:45;;;;;;;70.57;14.13;;;4.90;99.90;;;;;;5055475;28;20079;-88
2021/11/06 05:32:11;;;;;;;60.63;14.73;;;6.10;99.90;;;;;;5052335;28;20024;-87
2021/11/06 05:34:37;;;;;;;48.13;14.60;;;4.80;99.90;;;;;;5058922;28;20025;-88
2021/11/06 05:37:03;;;;;;;39.70;13.43;;;4.80;99.90;;;;;;5045561;28;20032;-87
2021/11/06 05:39:29;;;;;;;42.25;13.43;;;4.90;99.90;;;;;;5055599;28;20032;-87
2021/11/06 05:41:54;;;;;;;58.78;13.23;;;5.00;99.90;;;;;;5061267;28;20131;-84
2021/11/06 05:44:20;;;;;;;31.10;12.65;;;5.90;99.90;;;;;;5066264;28;20028;-82
2021/11/06 05:46:46;;;;;;;28.27;12.50;;;5.00;99.90;;;;;;5038491;28;20025;-87
2021/11/06 05:49:12;;;;;;;33.10;12.70;;;5.00;99.90;;;;;;5049733;28;20384;-86
2021/11/06 05:51:38;;;;;;;35.60;12.52;;;6.60;99.90;;;;;;5057871;28;20028;-86
2021/11/06 05:54:05;;;;;;;36.60;11.82;;;6.10;99.90;;;;;;5067097;28;20039;-88
2021/11/06 05:56:30;;;;;;;33.13;12.93;;;5.20;99.90;;;;;;5043958;28;20159;-88
2021/11/06 05:58:56;;;;;;;36.42;12.73;;;5.20;99.90;;;;;;5049684;28;20082;-87
2021/11/06 06:01:22;;;;;;;44.97;12.63;;;6.60;99.90;;;;;;5052299;28;20029;-86
2021/11/06 06:03:47;;;;;;;45.75;13.45;;;5.20;99.90;;;;;;5069649;28;20374;-87
2021/11/06 06:06:13;;;;;;;49.47;14.25;;;5.20;99.90;;;;;;5047522;28;20059;-87
2021/11/06 06:08:39;;;;;;;37.33;12.32;;;5.20;99.90;;;;;;5058936;28;20032;-83
2021/11/06 06:11:05;;;;;;;30.35;12.15;;;5.20;99.90;;;;;;5037396;28;20460;-88
2021/11/06 06:13:31;;;;;;;27.13;10.65;;;5.40;99.90;;;;;;5037243;28;20029;-85
2021/11/06 06:15:57;;;;;;;30.83;11.73;;;;;;;;;;5050528;28;20043;-83
2021/11/06 06:18:23;;;;;;;56.67;12.13;;;;;;;;;;5051064;28;20178;-85
2021/11/06 06:20:49;;;;;;;41.60;13.75;;;;;;;;;;5042334;28;20167;-88
2021/11/06 06:23:15;;;;;;;65.43;14.00;;;;;;;;;;5067736;28;20374;-86
2021/11/06 06:25:41;;;;;;;40.08;13.68;;;5.10;99.90;;;;;;5052085;28;20046;-84
2021/11/06 06:28:08;;;;;;;38.00;11.95;;;7.90;99.90;;;;;;5056859;28;20744;-86
2021/11/06 06:30:35;;;;;;;58.00;14.95;;;5.20;99.90;;;;;;5056032;28;20476;-84
2021/11/06 06:33:02;;;;;;;53.80;15.15;;;5.20;99.90;;;;;;5045634;28;20035;-86
2021/11/06 06:35:29;;;;;;;52.45;14.75;;;5.20;99.90;;;;;;5054068;28;20032;-86
2021/11/06 06:38:00;;;;;;;50.92;15.57;;;5.20;99.90;;;;;;5038938;28;20032;-85
2021/11/06 06:40:26;;;;;;;54.30;17.90;;;5.20;99.90;;;;;;5050398;28;20021;-87
2021/11/06 06:42:53;;;;;;;88.97;15.13;;;5.20;99.90;;;;;;5052338;28;20021;-84
2021/11/06 06:45:19;;;;;;;71.55;15.43;;;5.30;99.90;;;;;;5056868;28;20131;-86
2021/11/06 06:47:44;;;;;;;48.53;14.98;;;5.20;99.90;;;;;;5059188;28;20071;-86
2021/11/06 06:50:11;;;;;;;72.95;16.27;;;5.20;99.90;;;;;;5055260;28;20025;-86
2021/11/06 06:52:37;;;;;;;66.65;15.60;;;6.00;99.90;;;;;;5046151;28;20024;-84
2021/11/06 06:55:04;;;;;;;55.78;14.48;;;5.10;99.90;;;;;;5050825;28;20040;-84
2021/11/06 06:57:30;;;;;;;50.53;18.83;;;5.10;99.90;;;;;;5053512;28;20033;-85
2021/11/06 06:59:56;;;;;;;57.58;14.43;;;5.20;99.90;;;;;;5051635;28;20024;-85
2021/11/06 07:02:21;;;;;;;68.43;14.93;;;5.30;99.90;;;;;;5047016;28;20057;-86
2021/11/06 07:04:47;;;;;;;55.00;13.23;;;5.90;99.90;;;;;;5053454;28;20108;-88
2021/11/06 07:07:13;;;;;;;57.85;14.32;;;5.20;99.90;;;;;;5056442;28;20044;-86
2021/11/06 07:09:39;;;;;;;127.68;15.85;;;5.20;99.90;;;;;;5044740;28;20029;-86
2021/11/06 07:12:06;;;;;;;60.78;15.13;;;5.20;99.90;;;;;;5046470;28;20152;-86
2021/11/06 07:14:32;;;;;;;64.03;15.38;;;;;;;;;;5058810;28;20044;-85
2021/11/06 07:16:58;;;;;;;96.60;14.85;;;5.10;99.90;;;;;;5053768;28;20128;-85
2021/11/06 07:19:23;;;;;;;58.50;15.60;;;5.10;99.90;;;;;;5047832;28;20068;-86
2021/11/06 07:21:49;;;;;;;51.72;15.32;;;5.10;99.90;;;;;;5060324;28;20028;-86
2021/11/06 07:24:15;;;;;;;73.82;15.27;;;7.20;99.90;;;;;;5054761;28;20028;-86
2021/11/06 07:26:41;;;;;;;62.58;15.35;;;5.10;99.90;;;;;;5072753;28;20096;-88
2021/11/06 07:29:06;;;;;;;64.75;14.23;;;6.00;99.90;;;;;;5058719;28;20037;-88
2021/11/06 07:31:32;;;;;;;52.15;14.88;;;6.80;99.90;;;;;;5058224;28;20404;-88
2021/11/06 07:33:58;;;;;;;53.42;15.93;;;6.80;99.90;;;;;;5042699;28;20079;-89
2021/11/06 07:36:24;;;;;;;56.15;14.18;;;5.20;99.90;;;;;;5051925;28;20041;-87
2021/11/06 07:38:52;;;;;;;71.65;14.35;;;5.80;99.90;;;;;;5057656;28;20033;-86
2021/11/06 07:41:18;;;;;;;89.57;14.52;;;;;;;;;;5044110;28;20028;-88
2021/11/06 07:43:45;;;;;;;64.30;14.43;;;;;;;;;;5059346;28;20496;-88
2021/11/06 07:46:10;;;;;;;69.00;15.88;;;5.20;99.90;;;;;;5046324;28;20349;-86
2021/11/06 07:48:36;;;;;;;49.20;14.18;;;7.50;99.90;;;;;;5059158;28;20036;-87
2021/11/06 07:51:02;;;;;;;47.85;13.77;;;;;;;;;;5060395;28;20469;-86
2021/11/06 07:53:28;;;;;;;55.03;15.20;;;5.20;99.90;;;;;;5053662;28;20496;-87
2021/11/06 07:55:55;;;;;;;48.47;14.02;;;;;;;;;;5054333;28;20048;-89
2021/11/06 07:58:21;;;;;;;51.05;15.75;;;;;;;;;;5067695;28;20024;-87
2021/11/06 08:00:47;;;;;;;52.97;15.20;;;5.30;99.90;;;;;;5057710;28;20071;-89
2021/11/06 08:03:12;;;;;;;50.90;15.90;;;5.60;99.90;;;;;;5064994;28;20410;-86
2021/11/06 08:05:38;;;;;;;46.05;15.65;;;6.80;99.90;;;;;;5061402;28;20024;-85
2021/11/06 08:08:04;;;;;;;57.70;15.10;;;5.40;99.90;;;;;;5062239;28;20551;-88
2021/11/06 08:10:30;;;;;;;45.25;15.13;;;;;;;;;;5060529;28;20025;-85
2021/11/06 08:13:00;;;;;;;58.45;15.82;;;5.50;99.90;;;;;;5061260;28;20035;-84
2021/11/06 08:15:26;;;;;;;53.60;15.53;;;5.70;99.90;;;;;;5057313;28;20025;-89
2021/11/06 08:17:53;;;;;;;46.40;16.83;;;5.50;99.90;;;;;;5059556;28;20428;-84
2021/11/06 08:20:23;;;;;;;40.65;14.95;;;5.40;99.90;;;;;;5054252;28;20090;-86
2021/11/06 08:22:49;;;;;;;101.93;16.23;;;8.30;99.90;;;;;;5057542;28;20029;-86
2021/11/06 08:25:16;;;;;;;41.22;14.70;;;5.50;99.90;;;;;;5058665;28;20021;-85
2021/11/06 08:27:50;;;;;;;42.78;13.80;;;7.70;99.90;;;;;;5056362;28;20021;-88
2021/11/06 08:30:18;;;;;;;39.67;14.25;;;5.50;99.90;;;;;;5054866;28;20120;-89
2021/11/06 08:32:45;;;;;;;69.78;13.88;;;5.60;99.90;;;;;;5057488;28;20021;-87
2021/11/06 08:35:11;;;;;;;53.72;14.20;;;5.60;99.90;;;;;;5050878;28;20048;-90
2021/11/06 08:37:38;;;;;;;67.57;12.70;;;5.60;99.90;;;;;;5051733;28;20094;-89
2021/11/06 08:40:05;;;;;;;43.15;14.13;;;5.60;99.90;;;;;;5059881;28;20032;-84
2021/11/06 08:42:32;;;;;;;36.92;13.82;;;5.60;99.90;;;;;;5052911;28;20016;-86
2021/11/06 08:44:58;;;;;;;39.70;14.48;;;5.70;99.90;;;;;;5055342;28;20017;-88
2021/11/06 08:47:24;;;;;;;41.30;12.35;;;7.60;99.90;;;;;;5052934;28;20021;-87
2021/11/06 08:49:50;;;;;;;37.83;12.15;;;5.80;99.90;;;;;;5050864;28;20066;-87
2021/11/06 08:52:20;;;;;;;49.58;13.90;;;5.80;99.90;;;;;;5053840;28;20024;-87
2021/11/06 08:54:47;;;;;;;45.67;12.55;;;8.70;99.90;;;;;;5054176;28;20020;-89
2021/11/06 08:57:13;;;;;;;33.72;12.18;;;5.80;99.90;;;;;;5057634;28;20032;-85
2021/11/06 08:59:42;;;;;;;30.38;12.15;;;6.30;99.90;;;;;;5118106;22;20045;-86
2021/11/06 09:02:09;;;;;;;37.70;13.13;;;5.90;99.90;;;;;;5018763;28;20104;-87
2021/11/06 09:04:36;;;;;;;29.35;12.52;;;6.00;99.90;;;;;;5036336;28;20164;-86
2021/11/06 09:07:04;;;;;;;31.50;13.50;;;6.00;99.90;;;;;;5024853;28;20032;-86
2021/11/06 09:09:30;;;;;;;29.40;12.88;;;5.90;99.90;;;;;;5017820;28;20457;-87
2021/11/06 09:11:55;;;;;;;41.80;13.23;;;5.90;99.90;;;;;;5003983;28;20312;-90
2021/11/06 09:14:21;;;;;;;33.67;13.20;;;7.90;99.90;;;;;;5009586;28;20040;-85
2021/11/06 09:16:47;;;;;;;27.10;12.90;;;5.80;99.90;;;;;;5016028;28;20481;-86
2021/11/06 09:19:17;;;;;;;29.02;12.93;;;5.90;99.90;;;;;;5006431;28;20033;-89
2021/11/06 09:21:44;;;;;;;36.73;13.43;;;5.90;99.90;;;;;;5009445;28;20031;-90
2021/11/06 09:24:10;;;;;;;32.83;13.15;;;;;;;;;;5013899;28;20029;-87
2021/11/06 09:26:45;;;;;;;27.17;13.05;;;6.00;99.90;;;;;;5015675;28;20053;-89
2021/11/06 09:29:14;;;;;;;28.55;13.18;;;6.50;99.90;;;;;;5017282;28;20067;-86
2021/11/06 09:31:41;;;;;;;30.10;12.48;;;6.10;99.90;;;;;;5016514;28;20477;-87
2021/11/06 09:34:08;;;;;;;29.85;12.77;;;8.00;99.90;;;;;;5016290;28;20551;-87
2021/11/06 09:36:35;;;;;;;28.23;12.45;;;7.90;99.90;;;;;;5015629;28;20060;-89
2021/11/06 09:39:02;;;;;;;30.35;13.25;;;6.80;99.90;;;;;;5011251;28;20534;-86
2021/11/06 09:41:28;;;;;;;33.10;14.52;;;7.20;99.90;;;;;;5007030;28;20037;-88
2021/11/06 09:43:55;;;;;;;49.70;16.27;;;7.20;99.90;;;;;;5018360;28;20036;-88
2021/11/06 09:46:21;;;;;;;30.83;13.25;;;6.20;99.90;;;;;;5016140;28;20021;-87
2021/11/06 09:48:48;;;;;;;29.35;13.85;;;7.00;99.90;;;;;;5013508;28;20026;-87
2021/11/06 09:51:16;;;;;;;34.22;15.02;;;7.30;99.90;;;;;;5016427;28;20037;-87
2021/11/06 09:53:43;;;;;;;32.83;13.77;;;6.50;99.90;;;;;;5014816;28;20083;-87
2021/11/06 09:56:10;;;;;;;38.35;14.45;;;8.00;99.90;;;;;;5016639;28;20026;-88
2021/11/06 09:58:37;;;;;;;34.63;13.50;;;6.40;99.90;;;;;;5014032;28;20060;-86
2021/11/06 10:01:04;;;;;;;38.33;15.40;;;6.40;99.90;;;;;;4971577;28;1183156;-84
2021/11/06 10:03:29;;;;;;;33.33;14.10;;;8.40;99.90;;;;;;5018460;28;20025;-89
2021/11/06 10:06:15;;;;;;;26.35;12.85;;;6.60;99.90;;;;;;5015759;28;20026;-85
2021/11/06 10:08:41;;;;;;;30.08;13.55;;;6.80;99.90;;;;;;5016792;28;20022;-85
2021/11/06 10:11:13;;;;;;;27.55;12.88;;;6.80;99.90;;;;;;5018264;28;20448;-86
2021/11/06 10:13:58;;;;;;;28.17;14.13;;;8.30;99.90;;;;;;5014907;28;20039;-87
2021/11/06 10:16:42;;;;;;;29.58;13.73;;;7.00;99.90;;;;;;5017372;28;20030;-85
2021/11/06 10:19:14;;;;;;;31.08;13.32;;;6.90;99.90;;;;;;5014932;28;20033;-88
2021/11/06 10:22:11;;;;;;;29.08;13.18;;;7.00;99.90;;;;;;5017455;28;20418;-87
2021/11/06 10:24:51;;;;;;;29.08;14.00;;;7.10;99.90;;;;;;5003732;28;20041;-88
2021/11/06 10:27:26;;;;;;;30.65;13.60;;;7.10;99.90;;;;;;5013292;28;20057;-86
2021/11/06 10:30:15;;;;;;;29.67;13.77;;;7.00;99.90;;;;;;5016160;28;20049;-85
2021/11/06 10:32:44;;;;;;;30.63;13.88;;;7.20;99.90;;;;;;5018361;28;20030;-87
2021/11/06 10:35:23;;;;;;;29.10;14.10;;;7.10;99.90;;;;;;5014984;28;20048;-88
2021/11/06 10:37:58;;;;;;;32.70;14.43;;;7.20;99.90;;;;;;5028427;28;20052;-89
2021/11/06 10:40:30;;;;;;;25.55;13.40;;;7.30;99.90;;;;;;5016994;28;20108;-88
2021/11/06 10:42:57;;;;;;;25.77;13.02;;;7.30;99.90;;;;;;5018614;28;20049;-86
2021/11/06 10:45:29;;;;;;;31.58;14.23;;;8.70;99.90;;;;;;5017062;28;20116;-87
2021/11/06 10:48:01;;;;;;;34.65;17.15;;;8.50;99.90;;;;;;5011893;28;20033;-86
2021/11/06 10:50:47;;;;;;;38.10;17.80;;;7.30;99.90;;;;;;5011829;28;20025;-90
2021/11/06 10:53:16;;;;;;;35.78;15.82;;;7.30;99.90;;;;;;5010537;28;20567;-88
2021/11/06 10:55:44;;;;;;;33.80;15.02;;;7.40;99.90;;;;;;5017072;28;20076;-86
2021/11/06 10:58:40;;;;;;;30.33;15.57;;;7.50;99.90;;;;;;5017777;28;20505;-86
2021/11/06 11:01:08;;;;;;;37.78;19.10;;;6.60;99.90;;;;;;5007348;28;20052;-87
2021/11/06 11:03:37;;;;;;;37.90;17.75;;;8.60;99.90;;;;;;5017115;28;20025;-87
2021/11/06 11:06:34;;;;;;;38.85;19.25;;;7.40;99.90;;;;;;5009517;28;20032;-88
2021/11/06 11:09:01;;;;;;;45.45;19.85;;;7.40;99.90;;;;;;5014000;28;20018;-88
2021/11/06 11:11:35;;;;;;;36.08;16.45;;;7.80;99.90;;;;;;5024081;28;20051;-85
2021/11/06 11:14:07;;;;;;;39.38;18.75;;;7.40;99.90;;;;;;5029038;28;20125;-87
2021/11/06 11:16:36;;;;;;;37.15;17.75;;;8.30;99.90;;;;;;5022871;28;20125;-86
2021/11/06 11:19:06;;;;;;;37.10;17.60;;;9.00;99.90;;;;;;5022723;28;20099;-86
2021/11/06 11:21:43;;;;;;;38.15;16.65;;;7.70;99.90;;;;;;5023389;28;20032;-88
2021/11/06 11:24:12;;;;;;;44.75;19.80;;;7.70;99.90;;;;;;5018084;28;20045;-84
2021/11/06 11:26:43;;;;;;;37.78;19.65;;;7.60;99.90;;;;;;5026899;28;20065;-87
2021/11/06 11:29:11;;;;;;;39.90;18.55;;;8.20;99.90;;;;;;5010166;28;20022;-84
2021/11/06 11:31:39;;;;;;;39.22;18.27;;;7.90;99.90;;;;;;5015853;28;20061;-87
2021/11/06 11:34:08;;;;;;;36.15;17.42;;;7.90;99.90;;;;;;5019194;28;20032;-87
2021/11/06 11:36:35;;;;;;;35.45;16.75;;;9.60;99.90;;;;;;5021572;28;20403;-85
2021/11/06 11:39:09;;;;;;;38.45;18.10;;;8.00;99.90;;;;;;5020795;28;20104;-86
2021/11/06 11:41:43;;;;;;;36.70;18.20;;;8.00;99.90;;;;;;5019579;28;20054;-86
2021/11/06 11:44:34;;;;;;;36.75;17.83;;;8.50;99.90;;;;;;5018278;28;20029;-82
2021/11/06 11:47:16;;;;;;;38.25;18.75;;;8.30;99.90;;;;;;5028290;28;20033;-90
2021/11/06 11:49:45;;;;;;;36.53;19.13;;;8.20;99.90;;;;;;5015356;28;20129;-85
2021/11/06 11:52:38;;;;;;;40.38;21.40;;;8.20;99.90;;;;;;5015898;28;20034;-89
2021/11/06 11:55:09;;;;;;;45.25;22.77;;;8.30;99.90;;;;;;5020340;28;20030;-88
2021/11/06 11:57:37;;;;;;;43.28;19.63;;;8.40;99.90;;;;;;5023420;28;20055;-88
2021/11/06 12:00:18;;;;;;;38.00;19.52;;;8.40;99.90;;;;;;5036630;28;20467;-87
2021/11/06 12:02:59;;;;;;;35.65;18.27;;;8.30;99.90;;;;;;5028715;28;20393;-90
2021/11/06 12:05:29;;;;;;;39.90;20.08;;;8.30;99.90;;;;;;5023044;28;20017;-88
2021/11/06 12:08:10;;;;;;;34.33;18.50;;;8.10;99.90;;;;;;5020767;28;20053;-88
2021/11/06 12:10:56;;;;;;;37.80;18.85;;;8.10;99.90;;;;;;5026578;28;20434;-87
2021/11/06 12:13:30;;;;;;;34.58;19.13;;;8.10;99.90;;;;;;5020448;28;20508;-88
2021/11/06 12:16:05;;;;;;;39.47;17.73;;;8.00;99.90;;;;;;5023738;28;20037;-88
2021/11/06 12:18:37;;;;;;;41.05;18.73;;;8.00;99.90;;;;;;5020592;28;20025;-87
2021/11/06 12:21:15;;;;;;;38.00;19.00;;;8.20;99.90;;;;;;5022979;28;20497;-86
2021/11/06 12:23:43;;;;;;;33.05;17.55;;;8.20;99.90;;;;;;5025306;28;20112;-87
2021/11/06 12:26:13;;;;;;;34.15;17.10;;;8.30;99.90;;;;;;5026322;28;20417;-88
2021/11/06 12:28:40;;;;;;;40.58;18.67;;;8.30;99.90;;;;;;5023700;28;20036;-84
2021/11/06 12:31:39;;;;;;;37.53;19.35;;;8.20;99.90;;;;;;5023824;28;20036;-86
2021/11/06 12:34:06;;;;;;;38.65;19.20;;;8.30;99.90;;;;;;5013239;28;20036;-88
2021/11/06 12:36:39;;;;;;;35.65;19.30;;;8.40;99.90;;;;;;5021787;28;20024;-87
2021/11/06 12:39:05;;;;;;;35.60;19.33;;;8.50;99.90;;;;;;5021561;28;20065;-85
2021/11/06 12:41:38;;;;;;;39.85;19.80;;;8.60;99.90;;;;;;5022504;28;20025;-88
2021/11/06 12:44:08;;;;;;;34.45;17.90;;;8.80;99.90;;;;;;5023328;28;20065;-89
2021/11/06 12:46:37;;;;;;;33.55;17.83;;;8.90;99.90;;;;;;5021666;28;20036;-85